Terminal Aerodrome Forecast
Issued by NWS Blacksburg, VA

Current Version | Previous Version | Text Only | Print | Product List | Glossary Off
Versions: 1 2 3 4 5 6 7 8 9 10 11 12 13 14 15 16 17 18 19 20 21 22 23 24 25 26

000
FTUS41 KRNK 060520
TAFBLF
TAF
KBLF 060520Z 0606/0706 00000KT P6SM BKN070
     FM061700 08005KT P6SM VCTS BKN045CB
     FM070100 VRB03KT P6SM BKN050 BKN100=

USA.gov is the U.S. government's official web portal to all federal, state and local government web resources and services.